Time;durP1;ratioP1;P1;durP2;ratioP2;P2;SDS_P1;SDS_P2;PMS_P1;PMS_P2;Temp;Humidity;BMP_temperature;BMP_pressure;BME280_temperature;BME280_humidity;BME280_pressure;Samples;Min_cycle;Max_cycle;Signal;HPM_P1;HPM_P2
2023/08/12 00:00:12;;;;;;;9.50;7.60;;;;;;;17.90;100.00;101462.84;109860;1239;71316;-66
2023/08/12 00:03:03;;;;;;;8.10;6.70;;;;;;;17.87;100.00;101460.44;109793;1241;72097;-67
2023/08/12 00:05:32;;;;;;;10.10;7.50;;;;;;;17.82;100.00;101462.67;109975;1241;63590;-67
2023/08/12 00:08:01;;;;;;;10.00;7.20;;;;;;;17.75;100.00;101461.76;109862;1242;61902;-67
2023/08/12 00:10:30;;;;;;;9.60;7.50;;;;;;;17.70;100.00;101461.38;109997;1242;59191;-67
2023/08/12 00:12:59;;;;;;;9.00;7.80;;;;;;;17.68;100.00;101462.30;110007;1241;73289;-67
2023/08/12 00:15:28;;;;;;;9.90;7.20;;;;;;;17.68;100.00;101463.23;109890;1241;71782;-71
2023/08/12 00:17:56;;;;;;;9.50;7.00;;;;;;;17.64;100.00;101461.41;110033;1241;61962;-67
2023/08/12 00:20:25;;;;;;;8.90;7.80;;;;;;;17.59;100.00;101464.20;110030;1241;63204;-66
2023/08/12 00:22:54;;;;;;;9.20;7.70;;;;;;;17.54;100.00;101465.89;109888;1242;57670;-67
2023/08/12 00:25:23;;;;;;;8.90;8.00;;;;;;;17.54;100.00;101465.39;109911;1241;61043;-66
2023/08/12 00:27:52;;;;;;;9.10;7.40;;;;;;;17.51;100.00;101466.71;110050;1241;73133;-67
2023/08/12 00:30:21;;;;;;;8.90;7.90;;;;;;;17.50;100.00;101470.67;109913;1240;61163;-66
2023/08/12 00:32:50;;;;;;;11.00;8.40;;;;;;;17.48;100.00;101471.02;110027;1241;69481;-67
2023/08/12 00:35:18;;;;;;;9.10;7.80;;;;;;;17.52;100.00;101473.61;109811;1239;74227;-66
2023/08/12 00:37:47;;;;;;;11.00;8.20;;;;;;;17.59;100.00;101473.93;110029;1242;58016;-66
2023/08/12 00:40:16;;;;;;;12.20;8.40;;;;;;;17.73;100.00;101477.58;110041;1242;57329;-67
2023/08/12 00:42:46;;;;;;;9.30;7.30;;;;;;;17.78;100.00;101481.04;109852;1239;72948;-67
2023/08/12 00:45:15;;;;;;;10.50;8.30;;;;;;;17.74;100.00;101481.19;109789;1239;61894;-65
2023/08/12 00:47:44;;;;;;;8.90;7.50;;;;;;;17.59;100.00;101478.60;109873;1240;59808;-66
2023/08/12 00:50:15;;;;;;;9.70;7.30;;;;;;;17.44;100.00;101483.34;109884;1242;73034;-66
2023/08/12 00:52:44;;;;;;;8.90;7.30;;;;;;;17.28;100.00;101487.77;109747;1243;63510;-66
2023/08/12 00:55:14;;;;;;;8.40;7.20;;;;;;;17.09;100.00;101488.54;110043;1240;59996;-66
2023/08/12 00:57:43;;;;;;;9.70;7.20;;;;;;;17.00;100.00;101493.03;109672;1239;63331;-65
2023/08/12 01:00:14;;;;;;;10.70;7.60;;;;;;;16.90;100.00;101491.95;109651;1241;61653;-65
2023/08/12 01:02:48;;;;;;;9.50;7.90;;;;;;;16.79;100.00;101492.59;109675;1241;70157;-66
2023/08/12 01:05:19;;;;;;;10.00;7.30;;;;;;;16.68;100.00;101493.67;109713;1241;74206;-66
2023/08/12 01:07:48;;;;;;;8.50;7.60;;;;;;;16.62;100.00;101495.95;109824;1242;62496;-66
2023/08/12 01:10:18;;;;;;;10.40;8.20;;;;;;;16.63;100.00;101496.73;109739;1241;61321;-67
2023/08/12 01:13:06;;;;;;;8.70;7.30;;;;;;;16.56;100.00;101497.27;110006;1240;73322;-66
2023/08/12 01:15:36;;;;;;;9.20;7.60;;;;;;;16.39;100.00;101487.45;109908;1241;61158;-66
2023/08/12 01:18:06;;;;;;;11.70;8.20;;;;;;;16.35;100.00;101500.29;109963;1241;69664;-66
2023/08/12 01:20:36;;;;;;;18.60;8.90;;;;;;;16.33;100.00;101499.08;109867;1242;62959;-66
2023/08/12 01:23:16;;;;;;;9.90;7.90;;;;;;;16.29;100.00;101498.36;109885;1242;57202;-66
2023/08/12 01:25:45;;;;;;;9.50;8.10;;;;;;;16.21;100.00;101502.94;109742;1240;57614;-66
2023/08/12 01:28:14;;;;;;;9.70;7.80;;;;;;;16.13;100.00;101504.83;110000;1241;73406;-66
2023/08/12 01:31:10;;;;;;;10.30;8.10;;;;;;;16.07;100.00;101502.67;109895;1241;71738;-66
2023/08/12 01:34:12;;;;;;;10.40;8.80;;;;;;;16.04;100.00;101503.59;109847;1242;69160;-66
2023/08/12 01:36:47;;;;;;;9.80;8.40;;;;;;;16.03;100.00;101504.39;109829;1241;74027;-68
2023/08/12 01:39:18;;;;;;;9.50;8.40;;;;;;;16.09;100.00;101503.71;109763;1242;57206;-66
2023/08/12 01:41:47;;;;;;;10.30;9.10;;;;;;;16.13;100.00;101509.70;109735;1241;58018;-66
2023/08/12 01:44:17;;;;;;;13.30;8.80;;;;;;;16.28;100.00;101507.23;109939;1241;61968;-66
2023/08/12 01:46:46;;;;;;;11.50;8.70;;;;;;;16.22;100.00;101505.27;109780;1241;71313;-66
2023/08/12 01:49:15;;;;;;;10.80;9.00;;;;;;;16.14;100.00;101508.27;109811;1242;69956;-66
2023/08/12 01:51:43;;;;;;;12.70;9.10;;;;;;;15.99;100.00;101511.61;109844;1241;74095;-66
2023/08/12 01:54:12;;;;;;;12.20;9.50;;;;;;;15.96;100.00;101515.20;109783;1241;61333;-67
2023/08/12 01:56:41;;;;;;;13.80;9.80;;;;;;;16.01;100.00;101510.50;109792;1241;57719;-67
2023/08/12 01:59:10;;;;;;;12.20;9.60;;;;;;;16.09;100.00;101510.90;109691;1240;72641;-66
2023/08/12 02:01:39;;;;;;;10.10;8.10;;;;;;;16.09;100.00;101510.58;109797;1241;72331;-66
2023/08/12 02:04:08;;;;;;;11.00;9.10;;;;;;;16.02;100.00;101511.20;109823;1239;61352;-66
2023/08/12 02:06:37;;;;;;;11.30;9.00;;;;;;;15.88;100.00;101510.04;109884;1241;63033;-66
2023/08/12 02:09:06;;;;;;;10.90;9.00;;;;;;;15.73;100.00;101506.66;109826;1242;61019;-66
2023/08/12 02:11:34;;;;;;;9.90;8.70;;;;;;;15.78;100.00;101505.27;109983;1241;60685;-71
2023/08/12 02:14:03;;;;;;;12.50;9.30;;;;;;;15.75;100.00;101509.38;109853;1241;62714;-66
2023/08/12 02:16:32;;;;;;;15.50;9.80;;;;;;;15.92;100.00;101512.70;109894;1241;61661;-66
2023/08/12 02:19:01;;;;;;;12.00;9.50;;;;;;;16.07;100.00;101517.46;110023;1241;59787;-66
2023/08/12 02:21:30;;;;;;;11.30;9.50;;;;;;;16.06;100.00;101522.95;110032;1241;73036;-66
2023/08/12 02:23:58;;;;;;;11.40;9.90;;;;;;;16.20;100.00;101525.30;109863;1242;64037;-66
2023/08/12 02:26:27;;;;;;;11.80;9.90;;;;;;;16.29;100.00;101522.47;110019;1241;57809;-65
2023/08/12 02:28:56;;;;;;;11.10;9.40;;;;;;;16.21;100.00;101526.30;109879;1239;62654;-65
2023/08/12 02:31:24;;;;;;;10.50;8.50;;;;;;;16.25;100.00;101523.14;109849;1241;71928;-65
2023/08/12 02:33:55;;;;;;;11.60;8.90;;;;;;;16.30;100.00;101522.04;109997;1241;70114;-66
2023/08/12 02:36:26;;;;;;;10.80;8.90;;;;;;;16.39;100.00;101520.38;109947;1241;62652;-65
2023/08/12 02:38:56;;;;;;;11.40;8.50;;;;;;;16.61;100.00;101519.95;109835;1242;57645;-66
2023/08/12 02:41:25;;;;;;;13.70;9.90;;;;;;;16.51;100.00;101522.36;110004;1240;57680;-66
2023/08/12 02:43:54;;;;;;;11.60;9.00;;;;;;;16.37;100.00;101521.73;109784;1241;62808;-67
2023/08/12 02:46:24;;;;;;;11.00;9.10;;;;;;;16.19;100.00;101527.18;109983;1241;71992;-66
2023/08/12 02:48:53;;;;;;;11.90;10.00;;;;;;;15.90;100.00;101524.61;109851;1241;61407;-66
2023/08/12 02:51:22;;;;;;;18.80;10.60;;;;;;;15.63;100.00;101528.36;109770;1241;62236;-66
2023/08/12 02:53:51;;;;;;;20.20;11.90;;;;;;;15.46;100.00;101532.23;109940;1240;57224;-66
2023/08/12 02:56:19;;;;;;;27.10;14.10;;;;;;;15.27;100.00;101535.29;109956;1241;60196;-66
2023/08/12 02:58:48;;;;;;;31.20;15.10;;;;;;;15.20;100.00;101534.08;109962;1241;72876;-66
2023/08/12 03:01:17;;;;;;;26.60;13.50;;;;;;;15.38;100.00;101531.42;109808;1239;72630;-68
2023/08/12 03:03:46;;;;;;;26.80;12.20;;;;;;;15.32;100.00;101535.64;109925;1240;60524;-66
2023/08/12 03:06:15;;;;;;;16.80;10.30;;;;;;;15.26;100.00;101535.52;109712;1241;63153;-66
2023/08/12 03:08:44;;;;;;;15.10;10.60;;;;;;;15.17;100.00;101536.31;109665;1244;57677;-66
2023/08/12 03:11:13;;;;;;;18.20;11.10;;;;;;;15.07;100.00;101534.08;109820;1242;57827;-66
2023/08/12 03:13:42;;;;;;;16.60;11.50;;;;;;;15.01;100.00;101539.99;109910;1241;62144;-66
2023/08/12 03:16:13;;;;;;;14.00;10.90;;;;;;;15.00;100.00;101541.27;109941;1241;72373;-66
2023/08/12 03:18:43;;;;;;;15.90;10.40;;;;;;;15.01;100.00;101537.49;109750;1241;68860;-67
2023/08/12 03:21:12;;;;;;;14.20;10.30;;;;;;;15.02;100.00;101543.95;109849;1241;64044;-66
2023/08/12 03:23:41;;;;;;;13.60;10.40;;;;;;;15.01;100.00;101539.10;109717;1244;57197;-67
2023/08/12 03:26:11;;;;;;;14.70;10.30;;;;;;;15.05;100.00;101535.61;109869;1242;57775;-66
2023/08/12 03:28:39;;;;;;;14.90;10.60;;;;;;;15.08;100.00;101535.54;109688;1240;72371;-71
2023/08/12 03:31:09;;;;;;;18.00;10.90;;;;;;;15.07;100.00;101537.92;109805;1241;72898;-66
2023/08/12 03:33:37;;;;;;;15.20;10.70;;;;;;;15.08;100.00;101534.47;109710;1240;70710;-66
2023/08/12 03:36:07;;;;;;;17.30;10.50;;;;;;;15.05;100.00;101532.82;109808;1242;62228;-66
2023/08/12 03:38:36;;;;;;;14.00;10.10;;;;;;;15.03;100.00;101532.64;109917;1241;57791;-65
2023/08/12 03:41:06;;;;;;;18.40;10.50;;;;;;;15.07;100.00;101537.38;109716;1239;61021;-65
2023/08/12 03:43:35;;;;;;;14.40;10.90;;;;;;;15.10;100.00;101542.45;109816;1240;73949;-65
2023/08/12 03:46:04;;;;;;;15.90;10.10;;;;;;;15.14;100.00;101537.84;109810;1241;71787;-65
2023/08/12 03:48:33;;;;;;;15.50;11.00;;;;;;;15.21;100.00;101541.02;109858;1240;70827;-66
2023/08/12 03:51:01;;;;;;;13.40;10.80;;;;;;;15.25;100.00;101537.92;109972;1241;73118;-66
2023/08/12 03:53:30;;;;;;;15.50;10.70;;;;;;;15.28;100.00;101541.20;109861;1242;57407;-65
2023/08/12 03:55:59;;;;;;;13.50;10.70;;;;;;;15.30;100.00;101541.52;109892;1241;57589;-65
2023/08/12 03:58:28;;;;;;;15.70;10.10;;;;;;;15.33;100.00;101541.98;109906;1242;61961;-65
2023/08/12 04:00:58;;;;;;;13.70;10.30;;;;;;;15.35;100.00;101543.05;109880;1241;72134;-65
2023/08/12 04:03:27;;;;;;;16.10;10.80;;;;;;;15.39;100.00;101542.90;110012;1241;60350;-65
2023/08/12 04:05:56;;;;;;;17.10;9.90;;;;;;;15.42;100.00;101539.16;109840;1241;63047;-65
2023/08/12 04:08:25;;;;;;;16.30;10.50;;;;;;;15.49;100.00;101538.99;109999;1239;61533;-66
2023/08/12 04:10:54;;;;;;;12.50;9.50;;;;;;;15.58;100.00;101542.98;109748;1242;61649;-66
2023/08/12 04:13:22;;;;;;;14.30;10.10;;;;;;;15.67;100.00;101541.60;109835;1242;62713;-66
2023/08/12 04:15:55;;;;;;;13.80;10.30;;;;;;;15.70;100.00;101544.54;109995;1239;72831;-66
2023/08/12 04:18:26;;;;;;;16.40;10.00;;;;;;;15.73;100.00;101542.70;109943;1241;70118;-67
2023/08/12 04:20:54;;;;;;;15.70;10.40;;;;;;;15.82;100.00;101548.50;109814;1240;73921;-64
2023/08/12 04:23:24;;;;;;;17.50;10.40;;;;;;;15.84;100.00;101547.63;109972;1240;57037;-66
2023/08/12 04:25:56;;;;;;;15.00;10.10;;;;;;;15.89;100.00;101547.02;109863;1240;57650;-67
2023/08/12 04:28:27;;;;;;;11.50;8.90;;;;;;;15.99;100.00;101551.80;109703;1240;73445;-67
2023/08/12 04:30:55;;;;;;;11.30;9.00;;;;;;;16.08;100.00;101550.20;109775;1239;71869;-66
2023/08/12 04:33:24;;;;;;;13.30;8.50;;;;;;;16.08;100.00;101550.40;109733;1242;61707;-65
2023/08/12 04:35:54;;;;;;;10.10;8.30;;;;;;;16.07;100.00;101551.36;109667;1242;63178;-67
2023/08/12 04:38:23;;;;;;;15.40;9.30;;;;;;;16.04;100.00;101550.14;109463;1246;57895;-66
2023/08/12 04:40:54;;;;;;;12.70;9.70;;;;;;;15.98;100.00;101551.00;109691;1241;58149;-66
2023/08/12 04:43:23;;;;;;;16.70;10.00;;;;;;;16.06;100.00;101549.46;109690;1242;64083;-67
2023/08/12 04:45:53;;;;;;;14.00;8.90;;;;;;;16.18;100.00;101552.16;109653;1242;71612;-66
2023/08/12 04:48:21;;;;;;;13.40;9.70;;;;;;;16.29;100.00;101553.39;109530;1239;70554;-66
2023/08/12 04:50:50;;;;;;;15.20;9.70;;;;;;;16.38;100.00;101548.62;109693;1241;63864;-66
2023/08/12 04:53:19;;;;;;;15.80;9.90;;;;;;;16.59;100.00;101546.67;109767;1242;62530;-66
2023/08/12 04:55:51;;;;;;;14.00;9.20;;;;;;;16.79;100.00;101547.59;109652;1242;57233;-66
2023/08/12 04:58:20;;;;;;;17.40;9.70;;;;;;;16.92;100.00;101545.40;109933;1239;72509;-66
2023/08/12 05:00:49;;;;;;;12.10;8.30;;;;;;;17.02;100.00;101539.67;109735;1240;72837;-66
2023/08/12 05:03:19;;;;;;;14.20;9.50;;;;;;;17.23;100.00;101550.00;109898;1241;70773;-66
2023/08/12 05:05:52;;;;;;;10.50;7.60;;;;;;;17.40;100.00;101550.55;109657;1244;74251;-67
2023/08/12 05:08:23;;;;;;;9.00;7.90;;;;;;;17.53;100.00;101555.92;109668;1242;62300;-66
2023/08/12 05:10:52;;;;;;;8.80;7.10;;;;;;;17.60;100.00;101553.02;109826;1241;57195;-66
2023/08/12 05:13:23;;;;;;;15.10;6.70;;;;;;;17.81;100.00;101564.10;109800;1242;73307;-66
2023/08/12 05:15:52;;;;;;;9.30;6.80;;;;;;;17.87;100.00;101564.60;109647;1241;62718;-67
2023/08/12 05:18:26;;;;;;;7.90;5.80;;;;;;;17.99;100.00;101571.05;109948;1241;59951;-66
2023/08/12 05:20:55;;;;;;;10.80;6.40;;;;;;;18.13;100.00;101568.71;109837;1241;71351;-67
2023/08/12 05:23:24;;;;;;;9.10;6.00;;;;;;;18.22;100.00;101568.27;109629;1244;57159;-66
2023/08/12 05:25:53;;;;;;;7.60;5.80;;;;;;;18.27;100.00;101571.52;109744;1240;57187;-67
2023/08/12 05:28:23;;;;;;;8.20;5.70;;;;;;;18.31;100.00;101571.33;109799;1240;73912;-66
2023/08/12 05:30:54;;;;;;;8.70;5.70;;;;;;;18.38;100.00;101572.27;109802;1241;71738;-67
2023/08/12 05:33:24;;;;;;;10.30;6.10;;;;;;;18.42;100.00;101567.16;109818;1239;70762;-66
2023/08/12 05:35:53;;;;;;;8.00;5.70;;;;;;;18.48;100.00;101565.85;109700;1241;74193;-67
2023/08/12 05:38:21;;;;;;;6.70;5.70;;;;;;;18.56;100.00;101564.64;109521;1243;63086;-67
2023/08/12 05:40:50;;;;;;;8.50;5.80;;;;;;;18.60;100.00;101560.59;109716;1241;57240;-68
2023/08/12 05:43:19;;;;;;;9.40;6.30;;;;;;;18.67;100.00;101552.82;109755;1241;62746;-67
2023/08/12 05:45:48;;;;;;;8.60;5.80;;;;;;;18.76;100.00;101551.67;109808;1240;61457;-71
2023/08/12 05:48:17;;;;;;;7.50;5.50;;;;;;;18.80;100.00;101550.20;109728;1240;70756;-67
2023/08/12 05:50:45;;;;;;;7.30;5.60;;;;;;;18.90;100.00;101551.08;109711;1240;64546;-67
2023/08/12 05:53:14;;;;;;;7.90;5.70;;;;;;;19.02;100.00;101549.55;109809;1242;57669;-66
2023/08/12 05:55:43;;;;;;;8.30;5.40;;;;;;;19.10;100.00;101545.23;109827;1241;57177;-66
2023/08/12 05:58:12;;;;;;;9.20;5.50;;;;;;;19.18;100.00;101542.70;109823;1240;72400;-67
2023/08/12 06:00:45;;;;;;;8.30;5.40;;;;;;;19.27;100.00;101540.65;109902;1241;72569;-67
2023/08/12 06:03:13;;;;;;;7.50;5.10;;;;;;;19.32;100.00;101538.40;109723;1241;69561;-65
2023/08/12 06:05:46;;;;;;;6.80;5.20;;;;;;;19.32;100.00;101545.68;109930;1241;73926;-66
2023/08/12 06:08:15;;;;;;;7.30;4.50;;;;;;;19.33;100.00;101541.52;109716;1239;57131;-66
2023/08/12 06:10:44;;;;;;;7.20;5.10;;;;;;;19.42;100.00;101545.27;109737;1240;57497;-66
2023/08/12 06:13:13;;;;;;;8.20;5.60;;;;;;;19.47;100.00;101542.58;109724;1242;72812;-66
2023/08/12 06:15:41;;;;;;;7.90;4.90;;;;;;;19.52;100.00;101543.33;109847;1239;71631;-66
2023/08/12 06:18:10;;;;;;;7.60;5.20;;;;;;;19.64;100.00;101541.80;109706;1240;60303;-66
2023/08/12 06:20:39;;;;;;;7.40;5.40;;;;;;;19.71;100.00;101542.37;109913;1240;63118;-67
2023/08/12 06:23:08;;;;;;;7.20;5.60;;;;;;;19.79;100.00;101541.75;109960;1240;57701;-68
2023/08/12 06:25:37;;;;;;;9.90;5.40;;;;;;;19.80;100.00;101545.88;109961;1239;60179;-68
2023/08/12 06:28:08;;;;;;;8.40;5.20;;;;;;;19.88;100.00;101536.11;109982;1239;73018;-68
2023/08/12 06:30:37;;;;;;;8.10;5.30;;;;;;;20.02;100.00;101535.61;109936;1239;73489;-68
2023/08/12 06:33:05;;;;;;;6.90;5.30;;;;;;;20.10;100.00;101534.42;109922;1239;70143;-68
2023/08/12 06:35:34;;;;;;;6.80;4.70;;;;;;;20.17;100.00;101537.81;109459;1241;371409;-68
2023/08/12 06:38:03;;;;;;;6.40;4.80;;;;;;;20.21;100.00;101540.50;109918;1239;58159;-68
2023/08/12 06:40:32;;;;;;;7.40;4.80;;;;;;;20.31;100.00;101534.64;109976;1239;57463;-67
2023/08/12 06:43:01;;;;;;;7.40;4.60;;;;;;;20.32;100.00;101535.39;109952;1241;73267;-69
2023/08/12 06:45:29;;;;;;;6.90;4.80;;;;;;;20.43;100.00;101534.39;109766;1240;72414;-68
2023/08/12 06:47:58;;;;;;;5.30;4.20;;;;;;;20.52;100.00;101530.96;110000;1239;59483;-68
2023/08/12 06:50:27;;;;;;;6.80;5.10;;;;;;;20.57;100.00;101529.79;109931;1241;63271;-70
2023/08/12 06:52:56;;;;;;;6.30;4.30;;;;;;;20.64;100.00;101528.86;109603;1242;57216;-69
2023/08/12 06:55:25;;;;;;;6.30;4.50;;;;;;;20.73;100.00;101530.92;109775;1239;61688;-68
2023/08/12 06:57:53;;;;;;;6.30;4.50;;;;;;;20.75;100.00;101522.25;109865;1240;74212;-69
2023/08/12 07:00:22;;;;;;;9.10;4.60;;;;;;;20.86;100.00;101522.71;109936;1239;61797;-68
2023/08/12 07:02:51;;;;;;;6.20;4.40;;;;;;;20.99;100.00;101533.86;109779;1239;59809;-68
2023/08/12 07:05:20;;;;;;;7.20;4.50;;;;;;;21.08;100.00;101522.57;109845;1239;62461;-68
2023/08/12 07:07:49;;;;;;;5.90;4.00;;;;;;;21.17;100.00;101529.69;109786;1242;61083;-68
2023/08/12 07:10:17;;;;;;;4.70;4.00;;;;;;;21.26;100.00;101530.45;109804;1240;61582;-68
2023/08/12 07:12:49;;;;;;;6.00;4.80;;;;;;;21.27;100.00;101529.90;109967;1240;62655;-68
2023/08/12 07:15:18;;;;;;;6.40;4.40;;;;;;;21.31;100.00;101524.95;109938;1239;60922;-68
2023/08/12 07:17:47;;;;;;;5.90;4.30;;;;;;;21.35;100.00;101522.05;109828;1239;69025;-69
2023/08/12 07:20:16;;;;;;;7.60;4.40;;;;;;;21.41;100.00;101518.18;109810;1241;73850;-68
2023/08/12 07:22:44;;;;;;;7.20;4.70;;;;;;;21.43;100.00;101516.05;109897;1238;60553;-68
2023/08/12 07:25:13;;;;;;;6.40;4.00;;;;;;;21.49;100.00;101516.16;109935;1239;57694;-67
2023/08/12 07:27:42;;;;;;;5.60;4.40;;;;;;;21.62;100.00;101517.20;109979;1239;72155;-68
2023/08/12 07:30:11;;;;;;;4.70;3.70;;;;;;;21.59;100.00;101518.09;109965;1240;72361;-68
2023/08/12 07:32:40;;;;;;;7.30;4.10;;;;;;;21.67;100.00;101515.64;109978;1240;60149;-68
2023/08/12 07:35:09;;;;;;;4.80;3.60;;;;;;;21.65;100.00;101513.40;109835;1242;73346;-70
2023/08/12 07:37:38;;;;;;;4.80;3.80;;;;;;;21.82;100.00;101516.68;109954;1241;61082;-70
2023/08/12 07:40:08;;;;;;;5.00;3.50;;;;;;;21.93;100.00;101511.41;109966;1239;60614;-71
2023/08/12 07:42:37;;;;;;;4.30;3.30;;;;;;;22.00;99.83;101512.27;109981;1241;63317;-70
2023/08/12 07:45:08;;;;;;;3.70;3.30;;;;;;;22.10;99.38;101514.74;109835;1240;61435;-69
2023/08/12 07:47:37;;;;;;;4.80;3.30;;;;;;;22.17;97.13;101513.27;109864;1240;60361;-69
2023/08/12 07:50:08;;;;;;;5.30;3.60;;;;;;;22.20;96.50;101513.83;109938;1239;73170;-70
2023/08/12 07:52:37;;;;;;;4.50;3.30;;;;;;;22.13;97.39;101512.61;109795;1241;60565;-69
2023/08/12 07:55:06;;;;;;;6.60;3.80;;;;;;;22.29;97.24;101511.42;109990;1241;59755;-69
2023/08/12 07:57:35;;;;;;;5.20;3.20;;;;;;;22.40;96.62;101509.88;109837;1239;74044;-69
2023/08/12 08:00:05;;;;;;;5.30;3.20;;;;;;;22.50;94.43;101509.84;109958;1238;62946;-69
2023/08/12 08:02:33;;;;;;;4.40;3.40;;;;;;;22.54;92.31;101506.04;109846;1239;58988;-69
2023/08/12 08:05:02;;;;;;;5.30;3.60;;;;;;;22.52;92.42;101503.27;109907;1239;62297;-69
2023/08/12 08:07:31;;;;;;;3.90;3.20;;;;;;;22.53;92.59;101508.07;109790;1241;61058;-70
2023/08/12 08:10:00;;;;;;;4.40;3.00;;;;;;;22.56;91.70;101508.33;109671;1239;57249;-73
2023/08/12 08:12:29;;;;;;;4.60;3.10;;;;;;;22.65;91.02;101509.60;109961;1239;62160;-73
2023/08/12 08:14:58;;;;;;;3.90;2.90;;;;;;;22.65;85.11;101511.52;109949;1241;61458;-74
2023/08/12 08:17:26;;;;;;;4.10;2.90;;;;;;;22.68;83.54;101509.63;109827;1240;69400;-72
2023/08/12 08:19:56;;;;;;;4.30;2.80;;;;;;;22.73;81.59;101505.86;109798;1242;72293;-73
2023/08/12 08:22:25;;;;;;;4.40;3.20;;;;;;;22.74;80.33;101505.48;109880;1240;61457;-71
2023/08/12 08:24:53;;;;;;;4.50;3.30;;;;;;;22.76;82.57;101505.16;109897;1239;60890;-64
2023/08/12 08:27:22;;;;;;;4.20;3.00;;;;;;;22.93;81.98;101503.96;109937;1239;63315;-65
2023/08/12 08:29:51;;;;;;;4.80;3.10;;;;;;;23.07;82.02;101501.63;109794;1241;60637;-65
2023/08/12 08:32:20;;;;;;;6.50;3.30;;;;;;;23.23;81.62;101503.17;109945;1239;70326;-64
2023/08/12 08:34:48;;;;;;;4.20;2.70;;;;;;;23.30;81.12;101494.04;109941;1239;73874;-64
2023/08/12 08:37:17;;;;;;;4.40;3.10;;;;;;;23.36;79.51;101491.06;109729;1242;57492;-64
2023/08/12 08:39:46;;;;;;;9.40;3.30;;;;;;;23.52;78.47;101488.70;109741;1241;57632;-64
2023/08/12 08:42:15;;;;;;;4.80;2.70;;;;;;;23.45;78.03;101492.52;109922;1239;72499;-64
2023/08/12 08:44:45;;;;;;;4.80;3.00;;;;;;;23.49;77.54;101492.70;109893;1242;61294;-64
2023/08/12 08:47:17;;;;;;;5.00;2.90;;;;;;;23.52;78.12;101487.23;109802;1242;59139;-63
2023/08/12 08:49:46;;;;;;;5.10;2.40;;;;;;;23.66;76.57;101480.86;109879;1240;63085;-63
2023/08/12 08:52:16;;;;;;;5.00;2.90;;;;;;;23.75;73.54;101484.40;109871;1241;57142;-63
2023/08/12 08:54:45;;;;;;;4.20;3.20;;;;;;;23.77;74.65;101484.23;109805;1240;60986;-63
2023/08/12 08:57:14;;;;;;;4.10;3.10;;;;;;;23.85;76.08;101484.40;109843;1240;73938;-63
2023/08/12 08:59:51;;;;;;;4.40;3.20;;;;;;;24.07;74.90;101482.64;109843;1240;71527;-66
2023/08/12 09:02:24;;;;;;;4.80;3.30;;;;;;;24.17;75.20;101482.55;109861;1239;60322;-66
2023/08/12 09:04:54;;;;;;;4.00;2.80;;;;;;;24.21;72.90;101486.67;109560;1239;64979;-72
2023/08/12 09:07:24;;;;;;;4.10;3.00;;;;;;;24.31;72.83;101478.70;109703;1239;59459;-66
2023/08/12 09:09:54;;;;;;;3.90;3.20;;;;;;;24.29;75.29;101484.17;109765;1239;60551;-63
2023/08/12 09:12:24;;;;;;;4.90;2.90;;;;;;;24.39;75.04;101474.44;109783;1240;73287;-69
2023/08/12 09:14:53;;;;;;;3.80;3.00;;;;;;;24.36;73.53;101479.52;109938;1239;62000;-68
2023/08/12 09:17:22;;;;;;;4.30;2.90;;;;;;;24.25;73.71;101481.61;109909;1239;70316;-69
2023/08/12 09:19:51;;;;;;;5.40;3.20;;;;;;;24.39;73.30;101473.75;109732;1240;74825;-69
2023/08/12 09:22:19;;;;;;;5.20;3.30;;;;;;;24.50;73.67;101471.16;109741;1239;59586;-69
2023/08/12 09:24:50;;;;;;;5.30;3.00;;;;;;;24.56;72.33;101475.86;109680;1242;57766;-68
2023/08/12 09:27:19;;;;;;;4.00;2.70;;;;;;;24.70;71.98;101472.88;109678;1241;62744;-70
2023/08/12 09:29:48;;;;;;;4.60;3.30;;;;;;;24.73;71.07;101475.27;109820;1239;71947;-70
2023/08/12 09:32:20;;;;;;;4.70;2.80;;;;;;;24.88;68.55;101466.16;109671;1240;70755;-70
2023/08/12 09:34:55;;;;;;;5.00;2.90;;;;;;;24.77;67.27;101472.31;109525;1240;63680;-69
2023/08/12 09:37:24;;;;;;;3.60;2.60;;;;;;;24.52;67.93;101470.95;109761;1240;57595;-69
2023/08/12 09:39:53;;;;;;;4.80;2.30;;;;;;;24.69;67.54;101462.96;109681;1242;57770;-69
2023/08/12 09:42:22;;;;;;;3.90;3.00;;;;;;;24.91;67.16;101467.05;109844;1241;72418;-70
2023/08/12 09:44:51;;;;;;;4.20;2.80;;;;;;;24.89;66.99;101458.73;109917;1240;72364;-69
2023/08/12 09:47:20;;;;;;;5.10;2.90;;;;;;;24.92;67.26;101462.88;109859;1240;68778;-69
2023/08/12 09:49:49;;;;;;;5.00;2.90;;;;;;;25.04;67.65;101457.86;109639;1239;73475;-69
2023/08/12 09:52:18;;;;;;;5.40;3.40;;;;;;;25.30;66.07;101467.54;109667;1240;60983;-69
2023/08/12 09:54:47;;;;;;;6.80;3.10;;;;;;;25.40;64.56;101456.09;109818;1239;60621;-69
2023/08/12 09:57:18;;;;;;;5.40;2.80;;;;;;;25.53;64.34;101452.18;109923;1239;64190;-71
2023/08/12 09:59:49;;;;;;;4.90;2.50;;;;;;;25.33;64.79;101457.26;109812;1242;60804;-69
2023/08/12 10:02:19;;;;;;;11.40;3.40;;;;;;;24.95;65.80;101453.92;109836;1240;61660;-70
2023/08/12 10:04:50;;;;;;;3.80;2.90;;;;;;;24.74;66.17;101455.83;109944;1240;74124;-70
2023/08/12 10:07:20;;;;;;;5.80;2.70;;;;;;;24.82;66.16;101449.36;109670;1241;57953;-69
2023/08/12 10:09:49;;;;;;;5.00;2.70;;;;;;;24.92;65.50;101452.57;109550;1244;57725;-69
2023/08/12 10:12:19;;;;;;;4.10;2.80;;;;;;;24.79;64.94;101449.89;109677;1242;62820;-69
2023/08/12 10:14:48;;;;;;;4.50;2.50;;;;;;;24.85;65.96;101456.42;109660;1242;61615;-69
2023/08/12 10:17:18;;;;;;;3.40;2.60;;;;;;;25.00;64.64;101446.37;109809;1239;69587;-69
2023/08/12 10:20:06;;;;;;;4.00;2.70;;;;;;;25.19;63.55;101446.53;109633;1242;63488;-69
2023/08/12 10:22:39;;;;;;;5.80;2.70;;;;;;;25.33;62.77;101445.73;109664;1241;61738;-69
2023/08/12 10:25:08;;;;;;;3.10;2.50;;;;;;;25.40;62.24;101453.48;109576;1239;60728;-69
2023/08/12 10:27:37;;;;;;;3.90;2.50;;;;;;;25.39;61.82;101450.19;109701;1241;62456;-69
2023/08/12 10:30:10;;;;;;;5.80;3.30;;;;;;;25.69;59.65;101450.04;109613;1242;61404;-69
2023/08/12 10:32:39;;;;;;;;;;;;;;;25.81;58.42;101437.02;109649;1239;70246;-69
2023/08/12 10:35:08;;;;;;;6.20;2.90;;;;;;;25.96;58.28;101432.39;109653;1242;63293;-70
2023/08/12 10:37:37;;;;;;;5.20;3.70;;;;;;;26.64;57.65;101443.39;109633;1241;57700;-70
2023/08/12 10:40:20;;;;;;;5.80;3.10;;;;;;;26.84;54.88;101432.96;109768;1241;57072;-70
2023/08/12 10:42:50;;;;;;;5.10;2.70;;;;;;;27.13;54.79;101431.88;109794;1241;62798;-70
2023/08/12 10:45:19;;;;;;;4.50;2.80;;;;;;;27.36;54.21;101428.52;109620;1240;71900;-70
2023/08/12 10:48:02;;;;;;;3.20;2.20;;;;;;;27.72;53.56;101429.11;109758;1239;61847;-69
2023/08/12 10:50:31;;;;;;;4.80;2.30;;;;;;;27.99;52.79;101421.95;109737;1238;63503;-69
2023/08/12 10:53:22;;;;;;;5.20;2.10;;;;;;;28.37;50.66;101419.84;109617;1242;57907;-68
2023/08/12 10:55:55;;;;;;;3.80;2.70;;;;;;;28.29;51.37;101427.90;109653;1239;61083;-69
2023/08/12 10:58:27;;;;;;;6.50;2.30;;;;;;;27.89;51.04;101430.10;109641;1239;74174;-70
2023/08/12 11:00:56;;;;;;;;;;;;;;;27.36;50.93;101426.58;109544;1240;71523;-70
2023/08/12 11:03:25;;;;;;;4.00;2.70;;;;;;;27.22;51.22;101415.27;109687;1242;59647;-70
2023/08/12 11:05:55;;;;;;;3.70;2.40;;;;;;;27.55;52.05;101418.52;109800;1241;63153;-70
2023/08/12 11:08:27;;;;;;;6.20;2.60;;;;;;;27.72;51.20;101421.06;109799;1241;61039;-69
2023/08/12 11:10:59;;;;;;;5.00;2.40;;;;;;;27.56;52.07;101423.52;109555;1241;57159;-70
2023/08/12 11:13:28;;;;;;;4.60;2.40;;;;;;;27.37;51.77;101417.21;109971;1239;73130;-70
2023/08/12 11:16:09;;;;;;;3.70;2.40;;;;;;;27.14;52.35;101420.17;109676;1239;72561;-69
2023/08/12 11:18:39;;;;;;;3.20;2.10;;;;;;;26.84;52.44;101420.36;109863;1239;59362;-69
2023/08/12 11:21:09;;;;;;;4.30;2.50;;;;;;;26.85;52.44;101411.16;109795;1239;64025;-70